sensor_id;sensor_type;location;lat;lon;timestamp;pressure;altitude;pressure_sealevel;temperature;humidity
75072;BME280;63651;55.728;38.022;2023-02-01T00:04:43;98188.50;;;12.82;37.81
75072;BME280;63651;55.728;38.022;2023-02-01T00:09:44;98187.69;;;12.82;37.76
75072;BME280;63651;55.728;38.022;2023-02-01T00:14:45;98181.72;;;12.85;37.47
75072;BME280;63651;55.728;38.022;2023-02-01T00:19:47;98179.25;;;12.83;37.47
75072;BME280;63651;55.728;38.022;2023-02-01T00:24:48;98183.31;;;12.81;37.47
75072;BME280;63651;55.728;38.022;2023-02-01T00:29:49;98180.84;;;12.79;37.41
75072;BME280;63651;55.728;38.022;2023-02-01T00:34:50;98184.22;;;12.87;37.74
75072;BME280;63651;55.728;38.022;2023-02-01T00:39:51;98186.88;;;12.81;37.43
75072;BME280;63651;55.728;38.022;2023-02-01T00:44:52;98189.66;;;12.87;37.40
75072;BME280;63651;55.728;38.022;2023-02-01T00:49:53;98188.25;;;12.84;37.25
75072;BME280;63651;55.728;38.022;2023-02-01T00:54:54;98189.34;;;12.83;37.13
75072;BME280;63651;55.728;38.022;2023-02-01T00:59:55;98184.72;;;12.83;37.31
75072;BME280;63651;55.728;38.022;2023-02-01T01:04:56;98187.75;;;12.87;37.12
75072;BME280;63651;55.728;38.022;2023-02-01T01:09:57;98184.16;;;12.81;37.16
75072;BME280;63651;55.728;38.022;2023-02-01T01:14:58;98189.78;;;12.75;37.44
75072;BME280;63651;55.728;38.022;2023-02-01T01:19:59;98191.50;;;12.81;37.17
75072;BME280;63651;55.728;38.022;2023-02-01T01:25:00;98199.09;;;12.79;37.61
75072;BME280;63651;55.728;38.022;2023-02-01T01:30:01;98194.09;;;12.71;37.14
75072;BME280;63651;55.728;38.022;2023-02-01T01:35:02;98201.19;;;12.72;37.30
75072;BME280;63651;55.728;38.022;2023-02-01T01:40:05;98201.31;;;12.82;37.42
75072;BME280;63651;55.728;38.022;2023-02-01T01:50:46;98190.09;;;12.78;37.20
75072;BME280;63651;55.728;38.022;2023-02-01T01:55:49;98198.78;;;12.75;36.96
75072;BME280;63651;55.728;38.022;2023-02-01T02:00:53;98194.09;;;12.71;37.15
75072;BME280;63651;55.728;38.022;2023-02-01T02:05:57;98200.69;;;12.75;37.89
75072;BME280;63651;55.728;38.022;2023-02-01T02:10:59;98202.00;;;12.72;37.07
75072;BME280;63651;55.728;38.022;2023-02-01T02:26:58;98210.88;;;12.63;37.21
75072;BME280;63651;55.728;38.022;2023-02-01T02:42:35;98223.88;;;12.77;36.78
75072;BME280;63651;55.728;38.022;2023-02-01T02:48:34;98218.69;;;12.76;37.00
75072;BME280;63651;55.728;38.022;2023-02-01T02:59:27;98225.56;;;12.62;37.11
75072;BME280;63651;55.728;38.022;2023-02-01T03:04:52;98225.63;;;12.67;37.10
75072;BME280;63651;55.728;38.022;2023-02-01T03:09:57;98225.88;;;12.65;37.35
75072;BME280;63651;55.728;38.022;2023-02-01T03:15:08;98218.28;;;12.67;37.23
75072;BME280;63651;55.728;38.022;2023-02-01T03:20:14;98221.44;;;12.59;37.39
75072;BME280;63651;55.728;38.022;2023-02-01T03:25:27;98226.06;;;12.59;37.68
75072;BME280;63651;55.728;38.022;2023-02-01T03:30:33;98227.28;;;12.68;37.49
75072;BME280;63651;55.728;38.022;2023-02-01T03:35:48;98222.09;;;12.66;37.51
75072;BME280;63651;55.728;38.022;2023-02-01T03:46:01;98219.88;;;12.63;37.42
75072;BME280;63651;55.728;38.022;2023-02-01T03:51:06;98221.00;;;12.67;37.39
75072;BME280;63651;55.728;38.022;2023-02-01T03:56:09;98229.00;;;12.74;37.24
75072;BME280;63651;55.728;38.022;2023-02-01T04:01:12;98235.72;;;12.66;37.28
75072;BME280;63651;55.728;38.022;2023-02-01T04:06:13;98244.53;;;12.73;36.73
75072;BME280;63651;55.728;38.022;2023-02-01T04:11:14;98243.06;;;12.66;37.34
75072;BME280;63651;55.728;38.022;2023-02-01T04:16:15;98261.81;;;12.62;37.17
75072;BME280;63651;55.728;38.022;2023-02-01T04:21:16;98252.16;;;12.55;37.39
75072;BME280;63651;55.728;38.022;2023-02-01T04:26:18;98267.50;;;12.61;37.46
75072;BME280;63651;55.728;38.022;2023-02-01T04:31:20;98273.84;;;12.66;37.21
75072;BME280;63651;55.728;38.022;2023-02-01T04:36:28;98273.28;;;12.64;36.95
75072;BME280;63651;55.728;38.022;2023-02-01T04:41:29;98286.56;;;12.61;37.11
75072;BME280;63651;55.728;38.022;2023-02-01T04:46:30;98294.00;;;12.65;36.87
75072;BME280;63651;55.728;38.022;2023-02-01T04:51:31;98296.41;;;12.62;36.85
75072;BME280;63651;55.728;38.022;2023-02-01T04:56:33;98305.22;;;12.69;37.04
75072;BME280;63651;55.728;38.022;2023-02-01T05:01:37;98304.66;;;12.67;37.06
75072;BME280;63651;55.728;38.022;2023-02-01T05:06:38;98310.59;;;12.64;37.15
75072;BME280;63651;55.728;38.022;2023-02-01T05:11:40;98320.41;;;12.65;37.84
75072;BME280;63651;55.728;38.022;2023-02-01T05:16:59;98322.31;;;12.64;38.44
75072;BME280;63651;55.728;38.022;2023-02-01T05:22:00;98326.19;;;12.68;38.67
75072;BME280;63651;55.728;38.022;2023-02-01T05:27:02;98323.47;;;12.68;39.07
75072;BME280;63651;55.728;38.022;2023-02-01T05:32:03;98323.22;;;12.70;39.07
75072;BME280;63651;55.728;38.022;2023-02-01T05:37:04;98320.16;;;12.66;39.15
75072;BME280;63651;55.728;38.022;2023-02-01T05:42:05;98320.25;;;12.71;38.72
75072;BME280;63651;55.728;38.022;2023-02-01T05:47:07;98324.03;;;12.70;38.98
75072;BME280;63651;55.728;38.022;2023-02-01T05:52:08;98329.81;;;12.74;40.24
75072;BME280;63651;55.728;38.022;2023-02-01T05:57:09;98328.16;;;12.73;39.90
75072;BME280;63651;55.728;38.022;2023-02-01T06:02:11;98331.38;;;12.70;39.64
75072;BME280;63651;55.728;38.022;2023-02-01T06:07:12;98340.13;;;12.72;39.54
75072;BME280;63651;55.728;38.022;2023-02-01T06:12:14;98343.44;;;12.74;39.53
75072;BME280;63651;55.728;38.022;2023-02-01T06:17:15;98343.13;;;12.70;39.04
75072;BME280;63651;55.728;38.022;2023-02-01T06:22:16;98344.03;;;12.76;39.04
75072;BME280;63651;55.728;38.022;2023-02-01T06:27:17;98348.88;;;12.74;38.72
75072;BME280;63651;55.728;38.022;2023-02-01T06:32:18;98357.66;;;12.76;38.65
75072;BME280;63651;55.728;38.022;2023-02-01T06:37:19;98367.97;;;12.74;38.55
75072;BME280;63651;55.728;38.022;2023-02-01T06:42:20;98364.75;;;12.77;38.29
75072;BME280;63651;55.728;38.022;2023-02-01T06:47:21;98371.34;;;12.81;38.60
75072;BME280;63651;55.728;38.022;2023-02-01T06:52:22;98377.47;;;12.71;38.27
75072;BME280;63651;55.728;38.022;2023-02-01T06:57:23;98374.66;;;12.83;38.25
75072;BME280;63651;55.728;38.022;2023-02-01T07:02:24;98365.81;;;13.09;38.21
75072;BME280;63651;55.728;38.022;2023-02-01T07:07:26;98371.75;;;13.06;38.02
75072;BME280;63651;55.728;38.022;2023-02-01T07:12:27;98369.44;;;12.98;37.65
75072;BME280;63651;55.728;38.022;2023-02-01T07:17:28;98365.16;;;13.02;37.69
75072;BME280;63651;55.728;38.022;2023-02-01T07:22:30;98372.47;;;13.35;38.86
75072;BME280;63651;55.728;38.022;2023-02-01T07:27:34;98381.66;;;13.12;37.60
75072;BME280;63651;55.728;38.022;2023-02-01T07:32:35;98383.31;;;14.45;42.75
75072;BME280;63651;55.728;38.022;2023-02-01T07:37:36;98389.22;;;13.66;38.28
75072;BME280;63651;55.728;38.022;2023-02-01T07:42:37;98396.63;;;13.27;37.52
75072;BME280;63651;55.728;38.022;2023-02-01T07:47:38;98396.94;;;13.13;38.27
75072;BME280;63651;55.728;38.022;2023-02-01T07:52:39;98391.72;;;12.95;39.29
75072;BME280;63651;55.728;38.022;2023-02-01T07:57:41;98396.28;;;12.90;40.50
75072;BME280;63651;55.728;38.022;2023-02-01T08:02:42;98394.13;;;12.92;43.26
75072;BME280;63651;55.728;38.022;2023-02-01T08:07:43;98403.31;;;13.02;43.70
75072;BME280;63651;55.728;38.022;2023-02-01T08:12:45;98403.47;;;13.12;43.83
75072;BME280;63651;55.728;38.022;2023-02-01T08:17:51;98396.28;;;13.23;42.93
75072;BME280;63651;55.728;38.022;2023-02-01T08:22:53;98390.34;;;13.26;42.41
75072;BME280;63651;55.728;38.022;2023-02-01T08:27:54;98397.53;;;13.32;43.06
75072;BME280;63651;55.728;38.022;2023-02-01T08:32:55;98393.84;;;13.43;43.11
75072;BME280;63651;55.728;38.022;2023-02-01T08:37:56;98379.47;;;13.48;42.92
75072;BME280;63651;55.728;38.022;2023-02-01T08:42:57;98385.75;;;13.49;42.10
75072;BME280;63651;55.728;38.022;2023-02-01T08:47:59;98397.53;;;13.54;42.83
75072;BME280;63651;55.728;38.022;2023-02-01T08:53:00;98385.28;;;13.57;41.98
75072;BME280;63651;55.728;38.022;2023-02-01T08:58:01;98385.34;;;13.62;40.80
75072;BME280;63651;55.728;38.022;2023-02-01T09:03:02;98390.56;;;13.63;42.14
75072;BME280;63651;55.728;38.022;2023-02-01T09:08:03;98390.88;;;13.67;42.16
75072;BME280;63651;55.728;38.022;2023-02-01T09:13:04;98391.78;;;13.72;42.75
75072;BME280;63651;55.728;38.022;2023-02-01T09:18:05;98383.06;;;13.75;40.98
75072;BME280;63651;55.728;38.022;2023-02-01T09:23:06;98387.66;;;13.70;39.09
75072;BME280;63651;55.728;38.022;2023-02-01T09:28:08;98378.94;;;13.51;38.28
75072;BME280;63651;55.728;38.022;2023-02-01T09:33:09;98374.19;;;13.41;38.02
75072;BME280;63651;55.728;38.022;2023-02-01T09:38:10;98373.47;;;13.29;38.65
75072;BME280;63651;55.728;38.022;2023-02-01T09:43:49;98375.38;;;13.29;38.19
75072;BME280;63651;55.728;38.022;2023-02-01T09:48:57;98372.09;;;13.10;38.28
75072;BME280;63651;55.728;38.022;2023-02-01T09:54:07;98368.22;;;13.06;38.21
75072;BME280;63651;55.728;38.022;2023-02-01T10:04:26;98371.00;;;12.94;38.62
75072;BME280;63651;55.728;38.022;2023-02-01T10:30:23;98355.22;;;12.96;38.33
75072;BME280;63651;55.728;38.022;2023-02-01T10:35:30;98362.00;;;12.94;39.38
75072;BME280;63651;55.728;38.022;2023-02-01T10:40:33;98357.38;;;12.94;38.48
75072;BME280;63651;55.728;38.022;2023-02-01T10:45:34;98353.81;;;12.94;38.39
75072;BME280;63651;55.728;38.022;2023-02-01T10:50:38;98350.53;;;12.92;37.98
75072;BME280;63651;55.728;38.022;2023-02-01T11:01:04;98341.13;;;12.82;38.39
75072;BME280;63651;55.728;38.022;2023-02-01T11:11:19;98348.16;;;12.78;38.02
75072;BME280;63651;55.728;38.022;2023-02-01T11:16:20;98345.91;;;12.75;38.10
75072;BME280;63651;55.728;38.022;2023-02-01T11:21:21;98345.09;;;12.75;38.06
75072;BME280;63651;55.728;38.022;2023-02-01T11:26:25;98344.19;;;12.69;38.12
75072;BME280;63651;55.728;38.022;2023-02-01T11:31:27;98342.38;;;12.75;37.64
75072;BME280;63651;55.728;38.022;2023-02-01T11:36:31;98344.59;;;12.44;37.91
75072;BME280;63651;55.728;38.022;2023-02-01T11:41:34;98354.91;;;12.26;37.29
75072;BME280;63651;55.728;38.022;2023-02-01T11:46:36;98359.75;;;12.07;37.32
75072;BME280;63651;55.728;38.022;2023-02-01T11:52:07;98366.06;;;11.96;38.15
75072;BME280;63651;55.728;38.022;2023-02-01T12:23:41;98386.63;;;11.51;37.93
75072;BME280;63651;55.728;38.022;2023-02-01T12:39:38;98400.81;;;11.42;38.46
75072;BME280;63651;55.728;38.022;2023-02-01T12:44:53;98394.56;;;11.30;39.24
75072;BME280;63651;55.728;38.022;2023-02-01T12:50:12;98403.22;;;11.27;39.55
75072;BME280;63651;55.728;38.022;2023-02-01T12:55:23;98415.63;;;11.22;39.28
75072;BME280;63651;55.728;38.022;2023-02-01T13:06:15;98413.72;;;11.23;39.23
75072;BME280;63651;55.728;38.022;2023-02-01T13:16:37;98421.41;;;11.03;38.56
75072;BME280;63651;55.728;38.022;2023-02-01T13:21:44;98417.75;;;10.97;38.81
75072;BME280;63651;55.728;38.022;2023-02-01T13:26:46;98423.66;;;11.06;38.91
75072;BME280;63651;55.728;38.022;2023-02-01T13:43:05;98422.34;;;10.73;39.14
75072;BME280;63651;55.728;38.022;2023-02-01T13:47:47;98412.28;;;10.62;38.24
75072;BME280;63651;55.728;38.022;2023-02-01T13:52:54;98412.41;;;10.67;38.32
75072;BME280;63651;55.728;38.022;2023-02-01T13:58:28;98423.28;;;10.67;39.25
75072;BME280;63651;55.728;38.022;2023-02-01T14:03:44;98422.19;;;10.56;38.94
75072;BME280;63651;55.728;38.022;2023-02-01T14:19:24;98426.34;;;10.59;38.45
75072;BME280;63651;55.728;38.022;2023-02-01T14:24:28;98427.97;;;10.48;38.79
75072;BME280;63651;55.728;38.022;2023-02-01T14:29:36;98434.56;;;10.41;39.29
75072;BME280;63651;55.728;38.022;2023-02-01T14:44:48;98440.34;;;10.44;38.85
75072;BME280;63651;55.728;38.022;2023-02-01T14:49:59;98447.50;;;10.39;38.79
75072;BME280;63651;55.728;38.022;2023-02-01T14:55:05;98448.66;;;10.31;39.29
75072;BME280;63651;55.728;38.022;2023-02-01T15:00:18;98445.69;;;10.51;38.71
75072;BME280;63651;55.728;38.022;2023-02-01T15:05:26;98447.00;;;10.30;39.30
75072;BME280;63651;55.728;38.022;2023-02-01T15:10:32;98450.16;;;10.27;39.10
75072;BME280;63651;55.728;38.022;2023-02-01T15:15:39;98449.72;;;10.30;39.04
75072;BME280;63651;55.728;38.022;2023-02-01T15:20:40;98451.59;;;10.30;38.93
75072;BME280;63651;55.728;38.022;2023-02-01T15:25:45;98457.25;;;10.28;39.02
75072;BME280;63651;55.728;38.022;2023-02-01T15:31:02;98450.03;;;10.22;39.10
75072;BME280;63651;55.728;38.022;2023-02-01T15:41:13;98465.03;;;10.24;38.36
75072;BME280;63651;55.728;38.022;2023-02-01T15:46:17;98467.56;;;10.19;39.00
75072;BME280;63651;55.728;38.022;2023-02-01T15:51:24;98471.22;;;10.13;39.77
75072;BME280;63651;55.728;38.022;2023-02-01T15:56:29;98470.75;;;10.16;38.52
75072;BME280;63651;55.728;38.022;2023-02-01T16:01:37;98477.22;;;10.34;38.13
75072;BME280;63651;55.728;38.022;2023-02-01T16:06:51;98469.78;;;10.11;38.50
75072;BME280;63651;55.728;38.022;2023-02-01T16:12:00;98478.06;;;10.16;38.32
75072;BME280;63651;55.728;38.022;2023-02-01T16:17:02;98477.69;;;10.12;39.06
75072;BME280;63651;55.728;38.022;2023-02-01T16:22:03;98484.78;;;10.13;38.75
75072;BME280;63651;55.728;38.022;2023-02-01T16:27:04;98489.00;;;10.09;38.63
75072;BME280;63651;55.728;38.022;2023-02-01T16:32:16;98481.41;;;10.00;38.76
75072;BME280;63651;55.728;38.022;2023-02-01T16:37:23;98490.44;;;9.93;38.49
75072;BME280;63651;55.728;38.022;2023-02-01T16:42:24;98485.84;;;9.94;38.91
75072;BME280;63651;55.728;38.022;2023-02-01T16:47:25;98491.13;;;9.89;38.77
75072;BME280;63651;55.728;38.022;2023-02-01T16:52:27;98494.50;;;10.03;39.72
75072;BME280;63651;55.728;38.022;2023-02-01T16:57:28;98502.78;;;10.08;39.17
75072;BME280;63651;55.728;38.022;2023-02-01T17:02:30;98496.22;;;10.15;40.08
75072;BME280;63651;55.728;38.022;2023-02-01T17:07:31;98496.59;;;10.19;39.42
75072;BME280;63651;55.728;38.022;2023-02-01T17:12:32;98504.31;;;10.22;39.84
75072;BME280;63651;55.728;38.022;2023-02-01T17:17:37;98491.56;;;10.22;39.56
75072;BME280;63651;55.728;38.022;2023-02-01T17:22:39;98495.25;;;10.28;39.21
75072;BME280;63651;55.728;38.022;2023-02-01T17:27:40;98500.31;;;10.24;39.66
75072;BME280;63651;55.728;38.022;2023-02-01T17:32:42;98502.19;;;10.24;39.41
75072;BME280;63651;55.728;38.022;2023-02-01T17:37:43;98509.06;;;10.26;39.43
75072;BME280;63651;55.728;38.022;2023-02-01T17:42:44;98504.44;;;10.27;40.36
75072;BME280;63651;55.728;38.022;2023-02-01T17:47:46;98510.84;;;10.33;39.82
75072;BME280;63651;55.728;38.022;2023-02-01T17:52:47;98512.28;;;10.35;39.51
75072;BME280;63651;55.728;38.022;2023-02-01T17:57:49;98505.19;;;10.34;39.88
75072;BME280;63651;55.728;38.022;2023-02-01T18:02:50;98507.91;;;10.34;40.15
75072;BME280;63651;55.728;38.022;2023-02-01T18:07:51;98504.38;;;10.34;39.64
75072;BME280;63651;55.728;38.022;2023-02-01T18:12:52;98503.31;;;10.35;39.67
75072;BME280;63651;55.728;38.022;2023-02-01T18:17:53;98495.53;;;10.38;40.16
75072;BME280;63651;55.728;38.022;2023-02-01T18:22:54;98502.03;;;10.37;39.67
75072;BME280;63651;55.728;38.022;2023-02-01T18:27:56;98498.47;;;10.37;40.07
75072;BME280;63651;55.728;38.022;2023-02-01T18:32:57;98497.88;;;10.35;39.20
75072;BME280;63651;55.728;38.022;2023-02-01T18:37:58;98498.88;;;10.40;39.99
75072;BME280;63651;55.728;38.022;2023-02-01T18:43:00;98489.69;;;10.41;39.49
75072;BME280;63651;55.728;38.022;2023-02-01T18:48:02;98495.09;;;10.41;40.20
75072;BME280;63651;55.728;38.022;2023-02-01T18:53:09;98478.50;;;10.31;40.09
75072;BME280;63651;55.728;38.022;2023-02-01T18:58:13;98486.13;;;10.41;39.87
75072;BME280;63651;55.728;38.022;2023-02-01T19:03:15;98482.41;;;10.35;40.10
75072;BME280;63651;55.728;38.022;2023-02-01T19:08:18;98496.19;;;10.52;40.91
75072;BME280;63651;55.728;38.022;2023-02-01T19:13:19;98483.13;;;10.61;40.96
75072;BME280;63651;55.728;38.022;2023-02-01T19:18:24;98491.06;;;10.74;40.63
75072;BME280;63651;55.728;38.022;2023-02-01T19:23:25;98483.75;;;10.74;40.77
75072;BME280;63651;55.728;38.022;2023-02-01T19:28:27;98496.03;;;10.77;39.78
75072;BME280;63651;55.728;38.022;2023-02-01T19:33:28;98499.47;;;10.84;39.85
75072;BME280;63651;55.728;38.022;2023-02-01T19:38:30;98490.25;;;10.85;39.59
75072;BME280;63651;55.728;38.022;2023-02-01T19:43:32;98493.59;;;10.87;39.79
75072;BME280;63651;55.728;38.022;2023-02-01T19:48:33;98503.84;;;10.85;40.13
75072;BME280;63651;55.728;38.022;2023-02-01T19:53:34;98505.88;;;10.89;40.46
75072;BME280;63651;55.728;38.022;2023-02-01T19:58:35;98501.16;;;10.97;40.66
75072;BME280;63651;55.728;38.022;2023-02-01T20:03:36;98500.81;;;11.05;41.36
75072;BME280;63651;55.728;38.022;2023-02-01T20:08:37;98501.28;;;11.13;40.17
75072;BME280;63651;55.728;38.022;2023-02-01T20:13:38;98496.09;;;11.12;40.52
75072;BME280;63651;55.728;38.022;2023-02-01T20:18:40;98507.31;;;11.04;39.40
75072;BME280;63651;55.728;38.022;2023-02-01T20:23:41;98500.94;;;11.10;40.00
75072;BME280;63651;55.728;38.022;2023-02-01T20:28:42;98506.38;;;11.10;39.08
75072;BME280;63651;55.728;38.022;2023-02-01T20:33:43;98512.97;;;11.02;39.02
75072;BME280;63651;55.728;38.022;2023-02-01T20:38:44;98510.03;;;11.04;39.52
75072;BME280;63651;55.728;38.022;2023-02-01T20:43:45;98514.88;;;11.02;39.75
75072;BME280;63651;55.728;38.022;2023-02-01T20:48:48;98509.56;;;11.07;38.86
75072;BME280;63651;55.728;38.022;2023-02-01T20:53:50;98506.72;;;11.02;39.18
75072;BME280;63651;55.728;38.022;2023-02-01T20:58:51;98506.47;;;11.03;38.75
75072;BME280;63651;55.728;38.022;2023-02-01T21:03:52;98505.28;;;10.99;39.07
75072;BME280;63651;55.728;38.022;2023-02-01T21:08:53;98505.06;;;11.01;39.18
75072;BME280;63651;55.728;38.022;2023-02-01T21:13:54;98507.91;;;11.06;39.04
75072;BME280;63651;55.728;38.022;2023-02-01T21:18:57;98499.75;;;11.06;38.64
75072;BME280;63651;55.728;38.022;2023-02-01T21:23:58;98504.94;;;11.07;38.79
75072;BME280;63651;55.728;38.022;2023-02-01T21:29:00;98500.81;;;11.05;38.53
75072;BME280;63651;55.728;38.022;2023-02-01T21:34:01;98502.13;;;11.02;39.12
75072;BME280;63651;55.728;38.022;2023-02-01T21:39:05;98496.69;;;11.02;38.90
75072;BME280;63651;55.728;38.022;2023-02-01T21:44:07;98506.47;;;11.03;39.24
75072;BME280;63651;55.728;38.022;2023-02-01T21:49:09;98505.53;;;11.09;38.26
75072;BME280;63651;55.728;38.022;2023-02-01T21:54:11;98504.59;;;11.04;38.69
75072;BME280;63651;55.728;38.022;2023-02-01T21:59:12;98502.69;;;11.04;38.76
75072;BME280;63651;55.728;38.022;2023-02-01T22:04:13;98502.47;;;11.06;39.03
75072;BME280;63651;55.728;38.022;2023-02-01T22:09:17;98497.03;;;11.06;39.18
75072;BME280;63651;55.728;38.022;2023-02-01T22:14:19;98500.00;;;11.04;38.76
75072;BME280;63651;55.728;38.022;2023-02-01T22:19:21;98506.13;;;11.00;38.63
75072;BME280;63651;55.728;38.022;2023-02-01T22:24:22;98503.16;;;11.01;39.17
75072;BME280;63651;55.728;38.022;2023-02-01T22:29:23;98496.44;;;11.04;38.30
75072;BME280;63651;55.728;38.022;2023-02-01T22:34:26;98496.22;;;11.05;38.63
75072;BME280;63651;55.728;38.022;2023-02-01T22:39:27;98497.28;;;11.04;39.66
75072;BME280;63651;55.728;38.022;2023-02-01T22:44:28;98498.22;;;11.10;39.22
75072;BME280;63651;55.728;38.022;2023-02-01T22:49:29;98503.41;;;11.11;39.04
75072;BME280;63651;55.728;38.022;2023-02-01T22:54:30;98499.75;;;11.06;39.00
75072;BME280;63651;55.728;38.022;2023-02-01T22:59:31;98507.44;;;11.09;39.22
75072;BME280;63651;55.728;38.022;2023-02-01T23:04:32;98494.69;;;11.09;38.66
75072;BME280;63651;55.728;38.022;2023-02-01T23:09:33;98499.88;;;11.11;38.65
75072;BME280;63651;55.728;38.022;2023-02-01T23:14:34;98497.03;;;11.06;38.84
75072;BME280;63651;55.728;38.022;2023-02-01T23:19:55;98496.22;;;11.05;38.56
75072;BME280;63651;55.728;38.022;2023-02-01T23:24:56;98490.06;;;11.10;38.80
75072;BME280;63651;55.728;38.022;2023-02-01T23:29:57;98493.03;;;11.08;38.42
75072;BME280;63651;55.728;38.022;2023-02-01T23:34:59;98489.34;;;11.03;39.00
75072;BME280;63651;55.728;38.022;2023-02-01T23:40:00;98496.22;;;11.05;38.88
75072;BME280;63651;55.728;38.022;2023-02-01T23:45:01;98491.47;;;11.01;38.50
75072;BME280;63651;55.728;38.022;2023-02-01T23:50:03;98501.88;;;11.04;38.03
75072;BME280;63651;55.728;38.022;2023-02-01T23:55:04;98497.28;;;11.04;38.10
